PWSweather.com
Personal Weather Stations
Station Observations
NAGEO265NE
Bedzin GrodziecPL 42-506

Bedzin GrodziecPL 42-506

Lat: 50.347, Lon: 19.079

Elevation: 948

Station Type: WH1080

http://www.meteo-grodziec.pl/

High Low Average
Temperature 76.3°F24.6°C 61.5°F16.4°C 67.3°F19.6°C
Dew Point 62.6°F17.0°C 56.8°F13.8°C 60.5°F15.8°C
Winds 4.0 mph 6.4 kmh Calm Calm 1.0 mph SW1.6 kmh SW
Wind Gusts 12.0 mph19.3 kmh -- 4.0 mph6.4 kmh
Humidity 97% 55% 80%
Pressure 29.98 in1015.2 mb 29.83 in1010.2 mb -
Precipitation 0.66 in16.8 mm - -
Hour Temp Dew Point Humidity Winds Wind Gusts Pressure Precip Precip Rate Daily Precip Total
12:00 AM 64.0°F17.8°C 62.2°F16.8°C 94% 2.0 mph ENE3.2 kmh ENE 8.0 mph12.9 kmh 29.85 in1010.8 mb 0.00 in0.0 mm 0.00 in0.0 mm 0.00 in0.0 mm
12:05 AM 64.0°F17.8°C 62.4°F16.9°C 94% 3.0 mph NE4.8 kmh NE 7.0 mph11.3 kmh 29.84 in1010.5 mb 0.00 in0.0 mm 0.00 in0.0 mm 0.00 in0.0 mm
12:10 AM 64.0°F17.8°C 62.4°F16.9°C 94% 3.0 mph NE4.8 kmh NE 7.0 mph11.3 kmh 29.83 in1010.2 mb 0.00 in0.0 mm 0.00 in0.0 mm 0.00 in0.0 mm
12:15 AM 64.0°F17.8°C 62.2°F16.8°C 94% 3.0 mph NE4.8 kmh NE 7.0 mph11.3 kmh 29.83 in1010.2 mb 0.00 in0.0 mm 0.00 in0.0 mm 0.00 in0.0 mm
12:20 AM 64.0°F17.8°C 62.4°F16.9°C 94% 3.0 mph ENE4.8 kmh ENE 6.0 mph9.7 kmh 29.83 in1010.2 mb 0.00 in0.0 mm 0.00 in0.0 mm 0.00 in0.0 mm
12:25 AM 64.0°F17.8°C 62.4°F16.9°C 94% 2.0 mph NE3.2 kmh NE 5.0 mph8.0 kmh 29.84 in1010.5 mb 0.00 in0.0 mm 0.00 in0.0 mm 0.00 in0.0 mm
12:30 AM 64.2°F17.9°C 62.4°F16.9°C 94% 1.0 mph NE1.6 kmh NE 4.0 mph6.4 kmh 29.85 in1010.8 mb 0.00 in0.0 mm 0.00 in0.0 mm 0.00 in0.0 mm
12:35 AM 64.0°F17.8°C 62.4°F16.9°C 94% 1.0 mph SW1.6 kmh SW 8.0 mph12.9 kmh 29.90 in1012.5 mb 0.03 in0.8 mm 0.36 in9.1 mm 0.03 in0.8 mm
12:40 AM 64.0°F17.8°C 62.4°F16.9°C 94% 3.0 mph WSW4.8 kmh WSW 8.0 mph12.9 kmh 29.92 in1013.2 mb 0.11 in2.8 mm 0.96 in24.4 mm 0.11 in2.8 mm
12:45 AM 64.0°F17.8°C 62.2°F16.8°C 94% 3.0 mph WSW4.8 kmh WSW 8.0 mph12.9 kmh 29.90 in1012.5 mb 0.21 in5.3 mm 1.20 in30.5 mm 0.21 in5.3 mm
12:50 AM 64.0°F17.8°C 62.6°F17.0°C 95% 1.0 mph NW1.6 kmh NW 6.0 mph9.7 kmh 29.90 in1012.5 mb 0.28 in7.1 mm 0.84 in21.3 mm 0.28 in7.1 mm
12:55 AM 63.9°F17.7°C 62.4°F16.9°C 95% 2.0 mph NW3.2 kmh NW 9.0 mph14.5 kmh 29.88 in1011.9 mb 0.30 in7.6 mm 0.24 in6.1 mm 0.30 in7.6 mm
01:00 AM 63.7°F17.6°C 62.2°F16.8°C 95% 3.0 mph NW4.8 kmh NW 10.0 mph16.1 kmh 29.88 in1011.9 mb 0.31 in7.9 mm 0.01 in0.3 mm 0.31 in7.9 mm
01:05 AM 63.7°F17.6°C 62.1°F16.7°C 95% 2.0 mph NW3.2 kmh NW 10.0 mph16.1 kmh 29.89 in1012.2 mb 0.34 in8.6 mm 0.36 in9.1 mm 0.34 in8.6 mm
01:10 AM 63.7°F17.6°C 62.1°F16.7°C 95% 1.0 mph NW1.6 kmh NW 7.0 mph11.3 kmh 29.91 in1012.9 mb 0.35 in8.9 mm 0.12 in3.0 mm 0.35 in8.9 mm
01:15 AM 63.7°F17.6°C 62.4°F16.9°C 96% Calm Calm 3.0 mph4.8 kmh 29.91 in1012.9 mb 0.39 in9.9 mm 0.48 in12.2 mm 0.39 in9.9 mm
01:20 AM 63.5°F17.5°C 62.4°F16.9°C 96% Calm Calm 4.0 mph6.4 kmh 29.92 in1013.2 mb 0.41 in10.4 mm 0.24 in6.1 mm 0.41 in10.4 mm
01:25 AM 63.3°F17.4°C 62.2°F16.8°C 96% 1.0 mph NW1.6 kmh NW 5.0 mph8.0 kmh 29.90 in1012.5 mb 0.43 in10.9 mm 0.24 in6.1 mm 0.43 in10.9 mm
01:30 AM 63.3°F17.4°C 62.1°F16.7°C 96% 1.0 mph NW1.6 kmh NW 7.0 mph11.3 kmh 29.92 in1013.2 mb 0.44 in11.2 mm 0.12 in3.0 mm 0.44 in11.2 mm
01:35 AM 63.3°F17.4°C 62.1°F16.7°C 96% 1.0 mph NW1.6 kmh NW 7.0 mph11.3 kmh 29.93 in1013.5 mb 0.41 in10.4 mm 0.00 in0.0 mm 0.45 in11.4 mm
01:40 AM 63.1°F17.3°C 62.1°F16.7°C 96% 1.0 mph NW1.6 kmh NW 8.0 mph12.9 kmh 29.93 in1013.5 mb 0.35 in8.9 mm 0.00 in0.0 mm 0.46 in11.7 mm
01:45 AM 63.0°F17.2°C 61.9°F16.6°C 96% 2.0 mph NW3.2 kmh NW 8.0 mph12.9 kmh 29.93 in1013.5 mb 0.25 in6.4 mm 0.00 in0.0 mm 0.48 in12.2 mm
01:50 AM 63.0°F17.2°C 61.9°F16.6°C 96% 2.0 mph NW3.2 kmh NW 8.0 mph12.9 kmh 29.94 in1013.9 mb 0.21 in5.3 mm 0.00 in0.0 mm 0.50 in12.7 mm
01:55 AM 63.0°F17.2°C 61.7°F16.5°C 96% 1.0 mph NW1.6 kmh NW 7.0 mph11.3 kmh 29.94 in1013.9 mb 0.21 in5.3 mm 0.00 in0.0 mm 0.51 in13.0 mm
02:00 AM 62.8°F17.1°C 61.5°F16.4°C 96% 1.0 mph NW1.6 kmh NW 5.0 mph8.0 kmh 29.93 in1013.5 mb 0.22 in5.6 mm 0.01 in0.3 mm 0.53 in13.5 mm
02:05 AM 62.6°F17.0°C 61.5°F16.4°C 96% 1.0 mph NW1.6 kmh NW 5.0 mph8.0 kmh 29.92 in1013.2 mb 0.20 in5.1 mm 0.00 in0.0 mm 0.54 in13.7 mm
02:10 AM 62.4°F16.9°C 61.3°F16.3°C 96% 1.0 mph N1.6 kmh N 4.0 mph6.4 kmh 29.89 in1012.2 mb 0.20 in5.1 mm 0.00 in0.0 mm 0.56 in14.2 mm
02:15 AM 62.2°F16.8°C 61.2°F16.2°C 96% 2.0 mph N3.2 kmh N 6.0 mph9.7 kmh 29.88 in1011.9 mb 0.19 in4.8 mm 0.00 in0.0 mm 0.57 in14.5 mm
02:20 AM 62.2°F16.8°C 61.0°F16.1°C 96% 1.0 mph NNW1.6 kmh NNW 6.0 mph9.7 kmh 29.93 in1013.5 mb 0.17 in4.3 mm 0.00 in0.0 mm 0.58 in14.7 mm
02:25 AM 62.2°F16.8°C 61.0°F16.1°C 96% 1.0 mph SW1.6 kmh SW 3.0 mph4.8 kmh 29.93 in1013.5 mb 0.16 in4.1 mm 0.00 in0.0 mm 0.58 in14.7 mm
02:30 AM 62.2°F16.8°C 61.2°F16.2°C 96% Calm Calm 3.0 mph4.8 kmh 29.94 in1013.9 mb 0.14 in3.6 mm 0.00 in0.0 mm 0.58 in14.7 mm
02:35 AM 62.2°F16.8°C 61.2°F16.2°C 96% Calm Calm 3.0 mph4.8 kmh 29.94 in1013.9 mb 0.14 in3.6 mm 0.00 in0.0 mm 0.59 in15.0 mm
02:40 AM 62.2°F16.8°C 61.0°F16.1°C 96% 1.0 mph NW1.6 kmh NW 5.0 mph8.0 kmh 29.94 in1013.9 mb 0.13 in3.3 mm 0.00 in0.0 mm 0.60 in15.2 mm
02:45 AM 62.1°F16.7°C 61.0°F16.1°C 96% 1.0 mph NW1.6 kmh NW 5.0 mph8.0 kmh 29.95 in1014.2 mb 0.12 in3.0 mm 0.00 in0.0 mm 0.60 in15.2 mm
02:50 AM 62.2°F16.8°C 61.0°F16.1°C 96% 1.0 mph NW1.6 kmh NW 4.0 mph6.4 kmh 29.95 in1014.2 mb 0.11 in2.8 mm 0.00 in0.0 mm 0.61 in15.5 mm
02:55 AM 62.2°F16.8°C 61.0°F16.1°C 96% 1.0 mph WNW1.6 kmh WNW 5.0 mph8.0 kmh 29.95 in1014.2 mb 0.11 in2.8 mm 0.00 in0.0 mm 0.62 in15.7 mm
03:00 AM 62.1°F16.7°C 60.8°F16.0°C 96% 1.0 mph WNW1.6 kmh WNW 5.0 mph8.0 kmh 29.94 in1013.9 mb 0.10 in2.5 mm 0.00 in0.0 mm 0.63 in16.0 mm
03:05 AM 61.9°F16.6°C 60.6°F15.9°C 96% 1.0 mph NW1.6 kmh NW 6.0 mph9.7 kmh 29.92 in1013.2 mb 0.09 in2.3 mm 0.00 in0.0 mm 0.64 in16.3 mm
03:10 AM 61.9°F16.6°C 60.6°F15.9°C 96% 1.0 mph NW1.6 kmh NW 6.0 mph9.7 kmh 29.94 in1013.9 mb 0.09 in2.3 mm 0.00 in0.0 mm 0.65 in16.5 mm
03:15 AM 61.9°F16.6°C 60.6°F15.9°C 96% Calm Calm 3.0 mph4.8 kmh 29.95 in1014.2 mb 0.06 in1.5 mm 0.00 in0.0 mm 0.65 in16.5 mm
03:20 AM 61.9°F16.6°C 60.6°F15.9°C 96% Calm Calm 3.0 mph4.8 kmh 29.95 in1014.2 mb 0.06 in1.5 mm 0.00 in0.0 mm 0.65 in16.5 mm
03:25 AM 61.9°F16.6°C 60.6°F15.9°C 96% Calm Calm 3.0 mph4.8 kmh 29.95 in1014.2 mb 0.06 in1.5 mm 0.00 in0.0 mm 0.65 in16.5 mm
03:30 AM 61.9°F16.6°C 60.6°F15.9°C 96% Calm Calm 1.0 mph1.6 kmh 29.95 in1014.2 mb 0.06 in1.5 mm 0.00 in0.0 mm 0.65 in16.5 mm
03:35 AM 61.7°F16.5°C 60.6°F15.9°C 96% Calm Calm 1.0 mph1.6 kmh 29.95 in1014.2 mb 0.06 in1.5 mm 0.00 in0.0 mm 0.65 in16.5 mm
03:40 AM 61.9°F16.6°C 61.0°F16.1°C 97% Calm Calm 1.0 mph1.6 kmh 29.94 in1013.9 mb 0.06 in1.5 mm 0.00 in0.0 mm 0.65 in16.5 mm
03:45 AM 61.9°F16.6°C 61.0°F16.1°C 97% Calm Calm 1.0 mph1.6 kmh 29.94 in1013.9 mb 0.05 in1.3 mm 0.00 in0.0 mm 0.65 in16.5 mm
03:50 AM 61.5°F16.4°C 60.8°F16.0°C 97% Calm Calm 2.0 mph3.2 kmh 29.94 in1013.9 mb 0.05 in1.3 mm 0.00 in0.0 mm 0.65 in16.5 mm
03:55 AM 61.7°F16.5°C 60.8°F16.0°C 97% Calm Calm 2.0 mph3.2 kmh 29.94 in1013.9 mb 0.03 in0.8 mm 0.00 in0.0 mm 0.65 in16.5 mm
04:00 AM 61.5°F16.4°C 60.8°F16.0°C 97% Calm Calm 2.0 mph3.2 kmh 29.93 in1013.5 mb 0.03 in0.8 mm 0.00 in0.0 mm 0.66 in16.8 mm
04:05 AM 61.5°F16.4°C 60.8°F16.0°C 97% Calm Calm 1.0 mph1.6 kmh 29.94 in1013.9 mb 0.02 in0.5 mm 0.00 in0.0 mm 0.66 in16.8 mm
04:10 AM 61.5°F16.4°C 60.8°F16.0°C 97% Calm Calm 2.0 mph3.2 kmh 29.94 in1013.9 mb 0.02 in0.5 mm 0.00 in0.0 mm 0.66 in16.8 mm
04:15 AM 61.7°F16.5°C 60.8°F16.0°C 97% Calm Calm 2.0 mph3.2 kmh 29.93 in1013.5 mb 0.02 in0.5 mm 0.00 in0.0 mm 0.66 in16.8 mm
04:20 AM 61.5°F16.4°C 60.6°F15.9°C 97% Calm Calm 1.0 mph1.6 kmh 29.92 in1013.2 mb 0.02 in0.5 mm 0.00 in0.0 mm 0.66 in16.8 mm
04:25 AM 61.5°F16.4°C 60.8°F16.0°C 97% Calm Calm 1.0 mph1.6 kmh 29.93 in1013.5 mb 0.02 in0.5 mm 0.00 in0.0 mm 0.66 in16.8 mm
04:30 AM 61.5°F16.4°C 60.8°F16.0°C 97% Calm Calm 1.0 mph1.6 kmh 29.93 in1013.5 mb 0.02 in0.5 mm 0.00 in0.0 mm 0.66 in16.8 mm
04:35 AM 61.5°F16.4°C 60.8°F16.0°C 97% Calm Calm 2.0 mph3.2 kmh 29.93 in1013.5 mb 0.02 in0.5 mm 0.00 in0.0 mm 0.66 in16.8 mm
04:40 AM 61.5°F16.4°C 60.8°F16.0°C 97% Calm Calm 2.0 mph3.2 kmh 29.92 in1013.2 mb 0.01 in0.3 mm 0.00 in0.0 mm 0.66 in16.8 mm
04:45 AM 61.9°F16.6°C 61.0°F16.1°C 97% Calm Calm 2.0 mph3.2 kmh 29.93 in1013.5 mb 0.01 in0.3 mm 0.00 in0.0 mm 0.66 in16.8 mm
04:50 AM 61.7°F16.5°C 60.8°F16.0°C 97% Calm Calm 2.0 mph3.2 kmh 29.92 in1013.2 mb 0.01 in0.3 mm 0.00 in0.0 mm 0.66 in16.8 mm
04:55 AM 61.7°F16.5°C 60.8°F16.0°C 97% Calm Calm 2.0 mph3.2 kmh 29.93 in1013.5 mb 0.01 in0.3 mm 0.00 in0.0 mm 0.66 in16.8 mm
05:00 AM 61.5°F16.4°C 60.8°F16.0°C 97% Calm Calm 1.0 mph1.6 kmh 29.93 in1013.5 mb 0.00 in0.0 mm 0.00 in0.0 mm 0.66 in16.8 mm
05:05 AM 61.7°F16.5°C 60.8°F16.0°C 97% Calm Calm 2.0 mph3.2 kmh 29.93 in1013.5 mb 0.00 in0.0 mm 0.00 in0.0 mm 0.66 in16.8 mm
05:10 AM 61.7°F16.5°C 60.8°F16.0°C 97% Calm Calm 2.0 mph3.2 kmh 29.93 in1013.5 mb 0.00 in0.0 mm 0.00 in0.0 mm 0.66 in16.8 mm
05:15 AM 61.5°F16.4°C 60.8°F16.0°C 97% Calm Calm 1.0 mph1.6 kmh 29.92 in1013.2 mb 0.00 in0.0 mm 0.00 in0.0 mm 0.66 in16.8 mm
05:20 AM 61.5°F16.4°C 60.8°F16.0°C 97% Calm Calm 1.0 mph1.6 kmh 29.93 in1013.5 mb 0.00 in0.0 mm 0.00 in0.0 mm 0.66 in16.8 mm
05:25 AM 61.7°F16.5°C 60.8°F16.0°C 97% Calm Calm 1.0 mph1.6 kmh 29.93 in1013.5 mb 0.00 in0.0 mm 0.00 in0.0 mm 0.66 in16.8 mm
05:30 AM 61.7°F16.5°C 60.8°F16.0°C 97% Calm Calm 1.0 mph1.6 kmh 29.93 in1013.5 mb 0.00 in0.0 mm 0.00 in0.0 mm 0.66 in16.8 mm
05:35 AM 61.9°F16.6°C 61.0°F16.1°C 97% Calm Calm 2.0 mph3.2 kmh 29.93 in1013.5 mb 0.00 in0.0 mm 0.00 in0.0 mm 0.66 in16.8 mm
05:40 AM 61.7°F16.5°C 60.8°F16.0°C 97% Calm Calm 2.0 mph3.2 kmh 29.94 in1013.9 mb 0.00 in0.0 mm 0.00 in0.0 mm 0.66 in16.8 mm
05:45 AM 61.7°F16.5°C 60.8°F16.0°C 97% Calm Calm 2.0 mph3.2 kmh 29.93 in1013.5 mb 0.00 in0.0 mm 0.00 in0.0 mm 0.66 in16.8 mm
05:50 AM 61.7°F16.5°C 60.8°F16.0°C 97% Calm Calm 2.0 mph3.2 kmh 29.94 in1013.9 mb 0.00 in0.0 mm 0.00 in0.0 mm 0.66 in16.8 mm
05:55 AM 61.9°F16.6°C 61.0°F16.1°C 97% Calm Calm 2.0 mph3.2 kmh 29.94 in1013.9 mb 0.00 in0.0 mm 0.00 in0.0 mm 0.66 in16.8 mm
06:00 AM 61.9°F16.6°C 61.0°F16.1°C 97% Calm Calm 2.0 mph3.2 kmh 29.94 in1013.9 mb 0.00 in0.0 mm 0.00 in0.0 mm 0.66 in16.8 mm
06:05 AM 61.7°F16.5°C 60.8°F16.0°C 97% Calm Calm 3.0 mph4.8 kmh 29.94 in1013.9 mb 0.00 in0.0 mm 0.00 in0.0 mm 0.66 in16.8 mm
06:10 AM 61.7°F16.5°C 60.8°F16.0°C 97% Calm Calm 3.0 mph4.8 kmh 29.94 in1013.9 mb 0.00 in0.0 mm 0.00 in0.0 mm 0.66 in16.8 mm
06:15 AM 61.7°F16.5°C 60.8°F16.0°C 97% Calm Calm 2.0 mph3.2 kmh 29.94 in1013.9 mb 0.00 in0.0 mm 0.00 in0.0 mm 0.66 in16.8 mm
06:20 AM 61.9°F16.6°C 61.0°F16.1°C 97% Calm Calm 1.0 mph1.6 kmh 29.94 in1013.9 mb 0.00 in0.0 mm 0.00 in0.0 mm 0.66 in16.8 mm
06:25 AM 62.1°F16.7°C 61.2°F16.2°C 97% Calm Calm 1.0 mph1.6 kmh 29.94 in1013.9 mb 0.00 in0.0 mm 0.00 in0.0 mm 0.66 in16.8 mm
06:30 AM 62.1°F16.7°C 61.2°F16.2°C 97% Calm Calm 1.0 mph1.6 kmh 29.94 in1013.9 mb 0.00 in0.0 mm 0.00 in0.0 mm 0.66 in16.8 mm
06:35 AM 62.1°F16.7°C 61.2°F16.2°C 97% Calm Calm 1.0 mph1.6 kmh 29.94 in1013.9 mb 0.00 in0.0 mm 0.00 in0.0 mm 0.66 in16.8 mm
06:40 AM 62.2°F16.8°C 61.3°F16.3°C 97% Calm Calm 2.0 mph3.2 kmh 29.95 in1014.2 mb 0.00 in0.0 mm 0.00 in0.0 mm 0.66 in16.8 mm
06:45 AM 62.2°F16.8°C 61.5°F16.4°C 97% Calm Calm 4.0 mph6.4 kmh 29.95 in1014.2 mb 0.00 in0.0 mm 0.00 in0.0 mm 0.66 in16.8 mm
06:50 AM 62.2°F16.8°C 61.5°F16.4°C 97% 1.0 mph SW1.6 kmh SW 4.0 mph6.4 kmh 29.95 in1014.2 mb 0.00 in0.0 mm 0.00 in0.0 mm 0.66 in16.8 mm
06:55 AM 62.2°F16.8°C 61.3°F16.3°C 97% 1.0 mph SW1.6 kmh SW 4.0 mph6.4 kmh 29.95 in1014.2 mb 0.00 in0.0 mm 0.00 in0.0 mm 0.66 in16.8 mm
07:00 AM 62.4°F16.9°C 61.5°F16.4°C 97% 1.0 mph SW1.6 kmh SW 2.0 mph3.2 kmh 29.95 in1014.2 mb 0.00 in0.0 mm 0.00 in0.0 mm 0.66 in16.8 mm
07:05 AM 62.6°F17.0°C 61.7°F16.5°C 97% Calm Calm 3.0 mph4.8 kmh 29.96 in1014.6 mb 0.00 in0.0 mm 0.00 in0.0 mm 0.66 in16.8 mm
07:10 AM 62.8°F17.1°C 61.9°F16.6°C 97% Calm Calm 3.0 mph4.8 kmh 29.95 in1014.2 mb 0.00 in0.0 mm 0.00 in0.0 mm 0.66 in16.8 mm
07:15 AM 62.8°F17.1°C 61.9°F16.6°C 97% Calm Calm 4.0 mph6.4 kmh 29.95 in1014.2 mb 0.00 in0.0 mm 0.00 in0.0 mm 0.66 in16.8 mm
07:20 AM 62.8°F17.1°C 61.9°F16.6°C 97% Calm Calm 4.0 mph6.4 kmh 29.95 in1014.2 mb 0.00 in0.0 mm 0.00 in0.0 mm 0.66 in16.8 mm
07:25 AM 62.8°F17.1°C 61.5°F16.4°C 96% Calm Calm 2.0 mph3.2 kmh 29.96 in1014.6 mb 0.00 in0.0 mm 0.00 in0.0 mm 0.66 in16.8 mm
07:30 AM 62.8°F17.1°C 61.7°F16.5°C 96% 1.0 mph SW1.6 kmh SW 3.0 mph4.8 kmh 29.96 in1014.6 mb 0.00 in0.0 mm 0.00 in0.0 mm 0.66 in16.8 mm
07:35 AM 63.0°F17.2°C 61.7°F16.5°C 96% Calm Calm 3.0 mph4.8 kmh 29.96 in1014.6 mb 0.00 in0.0 mm 0.00 in0.0 mm 0.66 in16.8 mm
07:40 AM 63.0°F17.2°C 61.7°F16.5°C 96% Calm Calm 3.0 mph4.8 kmh 29.96 in1014.6 mb 0.00 in0.0 mm 0.00 in0.0 mm 0.66 in16.8 mm
07:45 AM 63.0°F17.2°C 61.9°F16.6°C 96% Calm Calm 3.0 mph4.8 kmh 29.96 in1014.6 mb 0.00 in0.0 mm 0.00 in0.0 mm 0.66 in16.8 mm
07:50 AM 63.3°F17.4°C 61.9°F16.6°C 95% Calm Calm 5.0 mph8.0 kmh 29.96 in1014.6 mb 0.00 in0.0 mm 0.00 in0.0 mm 0.66 in16.8 mm
07:55 AM 63.3°F17.4°C 61.5°F16.4°C 94% 1.0 mph NW1.6 kmh NW 5.0 mph8.0 kmh 29.96 in1014.6 mb 0.00 in0.0 mm 0.00 in0.0 mm 0.66 in16.8 mm
08:00 AM 63.7°F17.6°C 61.9°F16.6°C 94% Calm Calm 4.0 mph6.4 kmh 29.96 in1014.6 mb 0.00 in0.0 mm 0.00 in0.0 mm 0.66 in16.8 mm
08:05 AM 63.7°F17.6°C 61.7°F16.5°C 93% Calm Calm 4.0 mph6.4 kmh 29.97 in1014.9 mb 0.00 in0.0 mm 0.00 in0.0 mm 0.66 in16.8 mm
08:10 AM 63.9°F17.7°C 61.7°F16.5°C 93% Calm Calm 4.0 mph6.4 kmh 29.97 in1014.9 mb 0.00 in0.0 mm 0.00 in0.0 mm 0.66 in16.8 mm
08:15 AM 63.9°F17.7°C 61.5°F16.4°C 92% Calm Calm 4.0 mph6.4 kmh 29.97 in1014.9 mb 0.00 in0.0 mm 0.00 in0.0 mm 0.66 in16.8 mm
08:20 AM 63.7°F17.6°C 61.0°F16.1°C 91% 1.0 mph SW1.6 kmh SW 4.0 mph6.4 kmh 29.97 in1014.9 mb 0.00 in0.0 mm 0.00 in0.0 mm 0.66 in16.8 mm
08:25 AM 64.0°F17.8°C 61.7°F16.5°C 92% 1.0 mph SW1.6 kmh SW 4.0 mph6.4 kmh 29.97 in1014.9 mb 0.00 in0.0 mm 0.00 in0.0 mm 0.66 in16.8 mm
08:30 AM 64.2°F17.9°C 61.7°F16.5°C 91% Calm Calm 3.0 mph4.8 kmh 29.98 in1015.2 mb 0.00 in0.0 mm 0.00 in0.0 mm 0.66 in16.8 mm
08:35 AM 64.8°F18.2°C 61.7°F16.5°C 90% Calm Calm 3.0 mph4.8 kmh 29.97 in1014.9 mb 0.00 in0.0 mm 0.00 in0.0 mm 0.66 in16.8 mm
08:40 AM 64.9°F18.3°C 61.9°F16.6°C 90% Calm Calm 3.0 mph4.8 kmh 29.98 in1015.2 mb 0.00 in0.0 mm 0.00 in0.0 mm 0.66 in16.8 mm
08:45 AM 64.8°F18.2°C 61.5°F16.4°C 89% Calm Calm 4.0 mph6.4 kmh 29.97 in1014.9 mb 0.00 in0.0 mm 0.00 in0.0 mm 0.66 in16.8 mm
08:50 AM 64.8°F18.2°C 61.3°F16.3°C 89% Calm Calm 4.0 mph6.4 kmh 29.97 in1014.9 mb 0.00 in0.0 mm 0.00 in0.0 mm 0.66 in16.8 mm
08:55 AM 64.9°F18.3°C 61.5°F16.4°C 89% Calm Calm 2.0 mph3.2 kmh 29.97 in1014.9 mb 0.00 in0.0 mm 0.00 in0.0 mm 0.66 in16.8 mm
09:00 AM 65.3°F18.5°C 61.7°F16.5°C 88% Calm Calm 3.0 mph4.8 kmh 29.97 in1014.9 mb 0.00 in0.0 mm 0.00 in0.0 mm 0.66 in16.8 mm
09:05 AM 65.8°F18.8°C 61.9°F16.6°C 87% 1.0 mph WNW1.6 kmh WNW 6.0 mph9.7 kmh 29.97 in1014.9 mb 0.00 in0.0 mm 0.00 in0.0 mm 0.66 in16.8 mm
09:10 AM 66.0°F18.9°C 61.5°F16.4°C 85% 1.0 mph W1.6 kmh W 6.0 mph9.7 kmh 29.97 in1014.9 mb 0.00 in0.0 mm 0.00 in0.0 mm 0.66 in16.8 mm
09:15 AM 66.4°F19.1°C 61.7°F16.5°C 85% 1.0 mph W1.6 kmh W 6.0 mph9.7 kmh 29.97 in1014.9 mb 0.00 in0.0 mm 0.00 in0.0 mm 0.66 in16.8 mm
09:20 AM 66.6°F19.2°C 61.2°F16.2°C 83% 1.0 mph WNW1.6 kmh WNW 3.0 mph4.8 kmh 29.97 in1014.9 mb 0.00 in0.0 mm 0.00 in0.0 mm 0.66 in16.8 mm
09:25 AM 66.7°F19.3°C 61.3°F16.3°C 83% 1.0 mph NW1.6 kmh NW 6.0 mph9.7 kmh 29.97 in1014.9 mb 0.00 in0.0 mm 0.00 in0.0 mm 0.66 in16.8 mm
09:30 AM 67.1°F19.5°C 62.1°F16.7°C 84% 1.0 mph NW1.6 kmh NW 6.0 mph9.7 kmh 29.97 in1014.9 mb 0.00 in0.0 mm 0.00 in0.0 mm 0.66 in16.8 mm
09:35 AM 67.1°F19.5°C 61.7°F16.5°C 83% 1.0 mph WSW1.6 kmh WSW 5.0 mph8.0 kmh 29.97 in1014.9 mb 0.00 in0.0 mm 0.00 in0.0 mm 0.66 in16.8 mm
09:40 AM 67.6°F19.8°C 62.1°F16.7°C 82% 1.0 mph W1.6 kmh W 5.0 mph8.0 kmh 29.97 in1014.9 mb 0.00 in0.0 mm 0.00 in0.0 mm 0.66 in16.8 mm
09:45 AM 68.2°F20.1°C 61.7°F16.5°C 80% 1.0 mph WNW1.6 kmh WNW 5.0 mph8.0 kmh 29.97 in1014.9 mb 0.00 in0.0 mm 0.00 in0.0 mm 0.66 in16.8 mm
09:50 AM 68.5°F20.3°C 62.4°F16.9°C 81% 1.0 mph WNW1.6 kmh WNW 5.0 mph8.0 kmh 29.97 in1014.9 mb 0.00 in0.0 mm 0.00 in0.0 mm 0.66 in16.8 mm
09:55 AM 68.4°F20.2°C 62.2°F16.8°C 81% 1.0 mph WSW1.6 kmh WSW 8.0 mph12.9 kmh 29.97 in1014.9 mb 0.00 in0.0 mm 0.00 in0.0 mm 0.66 in16.8 mm
10:00 AM 68.7°F20.4°C 62.1°F16.7°C 79% 2.0 mph W3.2 kmh W 8.0 mph12.9 kmh 29.97 in1014.9 mb 0.00 in0.0 mm 0.00 in0.0 mm 0.66 in16.8 mm
10:05 AM 69.1°F20.6°C 62.2°F16.8°C 79% 2.0 mph W3.2 kmh W 7.0 mph11.3 kmh 29.97 in1014.9 mb 0.00 in0.0 mm 0.00 in0.0 mm 0.66 in16.8 mm
10:10 AM 69.6°F20.9°C 61.9°F16.6°C 76% 2.0 mph W3.2 kmh W 7.0 mph11.3 kmh 29.97 in1014.9 mb 0.00 in0.0 mm 0.00 in0.0 mm 0.66 in16.8 mm
10:15 AM 69.6°F20.9°C 61.3°F16.3°C 75% 2.0 mph NW3.2 kmh NW 8.0 mph12.9 kmh 29.98 in1015.2 mb 0.00 in0.0 mm 0.00 in0.0 mm 0.66 in16.8 mm
10:20 AM 69.4°F20.8°C 61.5°F16.4°C 76% 3.0 mph W4.8 kmh W 12.0 mph19.3 kmh 29.97 in1014.9 mb 0.00 in0.0 mm 0.00 in0.0 mm 0.66 in16.8 mm
10:25 AM 69.6°F20.9°C 61.9°F16.6°C 76% 3.0 mph WSW4.8 kmh WSW 12.0 mph19.3 kmh 29.97 in1014.9 mb 0.00 in0.0 mm 0.00 in0.0 mm 0.66 in16.8 mm
10:30 AM 69.8°F21.0°C 61.5°F16.4°C 75% 2.0 mph WSW3.2 kmh WSW 10.0 mph16.1 kmh 29.98 in1015.2 mb 0.00 in0.0 mm 0.00 in0.0 mm 0.66 in16.8 mm
10:35 AM 69.3°F20.7°C 62.1°F16.7°C 78% 3.0 mph WSW4.8 kmh WSW 10.0 mph16.1 kmh 29.98 in1015.2 mb 0.00 in0.0 mm 0.00 in0.0 mm 0.66 in16.8 mm
10:40 AM 69.6°F20.9°C 61.3°F16.3°C 75% 3.0 mph WSW4.8 kmh WSW 7.0 mph11.3 kmh 29.98 in1015.2 mb 0.00 in0.0 mm 0.00 in0.0 mm 0.66 in16.8 mm
10:45 AM 70.3°F21.3°C 61.3°F16.3°C 73% 2.0 mph WSW3.2 kmh WSW 7.0 mph11.3 kmh 29.98 in1015.2 mb 0.00 in0.0 mm 0.00 in0.0 mm 0.66 in16.8 mm
10:50 AM 71.1°F21.7°C 60.8°F16.0°C 70% 2.0 mph W3.2 kmh W 6.0 mph9.7 kmh 29.98 in1015.2 mb 0.00 in0.0 mm 0.00 in0.0 mm 0.66 in16.8 mm
10:55 AM 70.5°F21.4°C 61.2°F16.2°C 72% 2.0 mph W3.2 kmh W 6.0 mph9.7 kmh 29.98 in1015.2 mb 0.00 in0.0 mm 0.00 in0.0 mm 0.66 in16.8 mm
11:00 AM 70.3°F21.3°C 60.6°F15.9°C 71% 3.0 mph WSW4.8 kmh WSW 9.0 mph14.5 kmh 29.97 in1014.9 mb 0.00 in0.0 mm 0.00 in0.0 mm 0.66 in16.8 mm
11:05 AM 70.3°F21.3°C 61.3°F16.3°C 73% 4.0 mph SW6.4 kmh SW 9.0 mph14.5 kmh 29.97 in1014.9 mb 0.00 in0.0 mm 0.00 in0.0 mm 0.66 in16.8 mm
11:10 AM 71.2°F21.8°C 62.1°F16.7°C 73% 3.0 mph WSW4.8 kmh WSW 9.0 mph14.5 kmh 29.97 in1014.9 mb 0.00 in0.0 mm 0.00 in0.0 mm 0.66 in16.8 mm
11:15 AM 72.0°F22.2°C 61.7°F16.5°C 70% 2.0 mph W3.2 kmh W 8.0 mph12.9 kmh 29.98 in1015.2 mb 0.00 in0.0 mm 0.00 in0.0 mm 0.66 in16.8 mm
11:20 AM 71.8°F22.1°C 61.9°F16.6°C 71% 3.0 mph WSW4.8 kmh WSW 8.0 mph12.9 kmh 29.98 in1015.2 mb 0.00 in0.0 mm 0.00 in0.0 mm 0.66 in16.8 mm
11:25 AM 72.1°F22.3°C 62.2°F16.8°C 71% 3.0 mph WSW4.8 kmh WSW 11.0 mph17.7 kmh 29.98 in1015.2 mb 0.00 in0.0 mm 0.00 in0.0 mm 0.66 in16.8 mm
11:30 AM 72.7°F22.6°C 61.2°F16.2°C 67% 2.0 mph W3.2 kmh W 11.0 mph17.7 kmh 29.98 in1015.2 mb 0.00 in0.0 mm 0.00 in0.0 mm 0.66 in16.8 mm
11:35 AM 72.3°F22.4°C 61.5°F16.4°C 69% 2.0 mph NW3.2 kmh NW 8.0 mph12.9 kmh 29.98 in1015.2 mb 0.00 in0.0 mm 0.00 in0.0 mm 0.66 in16.8 mm
11:40 AM 72.1°F22.3°C 61.3°F16.3°C 69% 2.0 mph WNW3.2 kmh WNW 8.0 mph12.9 kmh 29.98 in1015.2 mb 0.00 in0.0 mm 0.00 in0.0 mm 0.66 in16.8 mm
11:45 AM 72.0°F22.2°C 60.3°F15.7°C 67% 2.0 mph WNW3.2 kmh WNW 8.0 mph12.9 kmh 29.98 in1015.2 mb 0.00 in0.0 mm 0.00 in0.0 mm 0.66 in16.8 mm
11:50 AM 72.7°F22.6°C 61.5°F16.4°C 68% 1.0 mph W1.6 kmh W 6.0 mph9.7 kmh 29.98 in1015.2 mb 0.00 in0.0 mm 0.00 in0.0 mm 0.66 in16.8 mm
11:55 AM 73.0°F22.8°C 60.6°F15.9°C 65% 2.0 mph W3.2 kmh W 7.0 mph11.3 kmh 29.98 in1015.2 mb 0.00 in0.0 mm 0.00 in0.0 mm 0.66 in16.8 mm
12:00 PM 73.0°F22.8°C 60.6°F15.9°C 65% 2.0 mph W3.2 kmh W 7.0 mph11.3 kmh 29.98 in1015.2 mb 0.00 in0.0 mm 0.00 in0.0 mm 0.66 in16.8 mm
12:05 PM 72.9°F22.7°C 60.8°F16.0°C 66% 1.0 mph W1.6 kmh W 7.0 mph11.3 kmh 29.98 in1015.2 mb 0.00 in0.0 mm 0.00 in0.0 mm 0.66 in16.8 mm
12:10 PM 72.9°F22.7°C 60.4°F15.8°C 65% 1.0 mph W1.6 kmh W 5.0 mph8.0 kmh 29.97 in1014.9 mb 0.00 in0.0 mm 0.00 in0.0 mm 0.66 in16.8 mm
12:15 PM 72.3°F22.4°C 59.5°F15.3°C 64% 3.0 mph WSW4.8 kmh WSW 7.0 mph11.3 kmh 29.97 in1014.9 mb 0.00 in0.0 mm 0.00 in0.0 mm 0.66 in16.8 mm
12:20 PM 72.7°F22.6°C 59.7°F15.4°C 64% 3.0 mph WSW4.8 kmh WSW 10.0 mph16.1 kmh 29.97 in1014.9 mb 0.00 in0.0 mm 0.00 in0.0 mm 0.66 in16.8 mm
12:25 PM 73.2°F22.9°C 60.8°F16.0°C 65% 2.0 mph WSW3.2 kmh WSW 10.0 mph16.1 kmh 29.97 in1014.9 mb 0.00 in0.0 mm 0.00 in0.0 mm 0.66 in16.8 mm
12:30 PM 73.6°F23.1°C 60.1°F15.6°C 63% 3.0 mph W4.8 kmh W 11.0 mph17.7 kmh 29.97 in1014.9 mb 0.00 in0.0 mm 0.00 in0.0 mm 0.66 in16.8 mm
12:35 PM 73.6°F23.1°C 60.6°F15.9°C 64% 3.0 mph W4.8 kmh W 11.0 mph17.7 kmh 29.97 in1014.9 mb 0.00 in0.0 mm 0.00 in0.0 mm 0.66 in16.8 mm
12:40 PM 73.6°F23.1°C 59.7°F15.4°C 62% 3.0 mph WSW4.8 kmh WSW 12.0 mph19.3 kmh 29.97 in1014.9 mb 0.00 in0.0 mm 0.00 in0.0 mm 0.66 in16.8 mm
12:45 PM 73.8°F23.2°C 58.5°F14.7°C 59% 4.0 mph SW6.4 kmh SW 12.0 mph19.3 kmh 29.97 in1014.9 mb 0.00 in0.0 mm 0.00 in0.0 mm 0.66 in16.8 mm
12:50 PM 73.6°F23.1°C 58.8°F14.9°C 60% 4.0 mph WSW6.4 kmh WSW 11.0 mph17.7 kmh 29.97 in1014.9 mb 0.00 in0.0 mm 0.00 in0.0 mm 0.66 in16.8 mm
12:55 PM 74.1°F23.4°C 59.9°F15.5°C 61% 2.0 mph WNW3.2 kmh WNW 7.0 mph11.3 kmh 29.97 in1014.9 mb 0.00 in0.0 mm 0.00 in0.0 mm 0.66 in16.8 mm
01:00 PM 74.7°F23.7°C 60.4°F15.8°C 61% 1.0 mph WNW1.6 kmh WNW 6.0 mph9.7 kmh 29.97 in1014.9 mb 0.00 in0.0 mm 0.00 in0.0 mm 0.66 in16.8 mm
01:05 PM 73.9°F23.3°C 59.2°F15.1°C 60% 2.0 mph WNW3.2 kmh WNW 6.0 mph9.7 kmh 29.97 in1014.9 mb 0.00 in0.0 mm 0.00 in0.0 mm 0.66 in16.8 mm
01:10 PM 73.9°F23.3°C 59.7°F15.4°C 61% 2.0 mph WNW3.2 kmh WNW 6.0 mph9.7 kmh 29.97 in1014.9 mb 0.00 in0.0 mm 0.00 in0.0 mm 0.66 in16.8 mm
01:15 PM 73.9°F23.3°C 60.1°F15.6°C 62% 2.0 mph WSW3.2 kmh WSW 8.0 mph12.9 kmh 29.97 in1014.9 mb 0.00 in0.0 mm 0.00 in0.0 mm 0.66 in16.8 mm
01:20 PM 74.5°F23.6°C 59.5°F15.3°C 60% 2.0 mph WSW3.2 kmh WSW 8.0 mph12.9 kmh 29.96 in1014.6 mb 0.00 in0.0 mm 0.00 in0.0 mm 0.66 in16.8 mm
01:25 PM 74.1°F23.4°C 59.4°F15.2°C 60% 1.0 mph WSW1.6 kmh WSW 7.0 mph11.3 kmh 29.96 in1014.6 mb 0.00 in0.0 mm 0.00 in0.0 mm 0.66 in16.8 mm
01:30 PM 73.8°F23.2°C 59.4°F15.2°C 61% 2.0 mph SW3.2 kmh SW 7.0 mph11.3 kmh 29.96 in1014.6 mb 0.00 in0.0 mm 0.00 in0.0 mm 0.66 in16.8 mm
01:35 PM 73.6°F23.1°C 59.7°F15.4°C 62% 2.0 mph WSW3.2 kmh WSW 5.0 mph8.0 kmh 29.95 in1014.2 mb 0.00 in0.0 mm 0.00 in0.0 mm 0.66 in16.8 mm
01:40 PM 74.1°F23.4°C 59.9°F15.5°C 61% 1.0 mph WNW1.6 kmh WNW 5.0 mph8.0 kmh 29.96 in1014.6 mb 0.00 in0.0 mm 0.00 in0.0 mm 0.66 in16.8 mm
01:45 PM 74.5°F23.6°C 58.6°F14.8°C 58% 1.0 mph NW1.6 kmh NW 5.0 mph8.0 kmh 29.96 in1014.6 mb 0.00 in0.0 mm 0.00 in0.0 mm 0.66 in16.8 mm
01:50 PM 74.3°F23.5°C 59.0°F15.0°C 59% 2.0 mph NW3.2 kmh NW 5.0 mph8.0 kmh 29.95 in1014.2 mb 0.00 in0.0 mm 0.00 in0.0 mm 0.66 in16.8 mm
01:55 PM 74.1°F23.4°C 59.4°F15.2°C 60% 2.0 mph NW3.2 kmh NW 7.0 mph11.3 kmh 29.95 in1014.2 mb 0.00 in0.0 mm 0.00 in0.0 mm 0.66 in16.8 mm
02:00 PM 73.9°F23.3°C 59.2°F15.1°C 60% 2.0 mph NW3.2 kmh NW 7.0 mph11.3 kmh 29.95 in1014.2 mb 0.00 in0.0 mm 0.00 in0.0 mm 0.66 in16.8 mm
02:05 PM 73.9°F23.3°C 60.1°F15.6°C 62% 1.0 mph NW1.6 kmh NW 5.0 mph8.0 kmh 29.95 in1014.2 mb 0.00 in0.0 mm 0.00 in0.0 mm 0.66 in16.8 mm
02:10 PM 74.1°F23.4°C 59.9°F15.5°C 61% Calm Calm 3.0 mph4.8 kmh 29.95 in1014.2 mb 0.00 in0.0 mm 0.00 in0.0 mm 0.66 in16.8 mm
02:15 PM 74.3°F23.5°C 59.9°F15.5°C 61% 1.0 mph WNW1.6 kmh WNW 5.0 mph8.0 kmh 29.95 in1014.2 mb 0.00 in0.0 mm 0.00 in0.0 mm 0.66 in16.8 mm
02:20 PM 74.3°F23.5°C 59.5°F15.3°C 60% 1.0 mph W1.6 kmh W 5.0 mph8.0 kmh 29.95 in1014.2 mb 0.00 in0.0 mm 0.00 in0.0 mm 0.66 in16.8 mm
02:25 PM 74.1°F23.4°C 59.9°F15.5°C 61% 1.0 mph WSW1.6 kmh WSW 4.0 mph6.4 kmh 29.95 in1014.2 mb 0.00 in0.0 mm 0.00 in0.0 mm 0.66 in16.8 mm
02:30 PM 75.2°F24.0°C 60.4°F15.8°C 60% 1.0 mph WSW1.6 kmh WSW 4.0 mph6.4 kmh 29.95 in1014.2 mb 0.00 in0.0 mm 0.00 in0.0 mm 0.66 in16.8 mm
02:35 PM 75.7°F24.3°C 60.4°F15.8°C 59% 1.0 mph WSW1.6 kmh WSW 8.0 mph12.9 kmh 29.95 in1014.2 mb 0.00 in0.0 mm 0.00 in0.0 mm 0.66 in16.8 mm
02:40 PM 75.6°F24.2°C 60.3°F15.7°C 59% 1.0 mph WSW1.6 kmh WSW 8.0 mph12.9 kmh 29.95 in1014.2 mb 0.00 in0.0 mm 0.00 in0.0 mm 0.66 in16.8 mm
02:45 PM 75.4°F24.1°C 61.3°F16.3°C 62% 1.0 mph WSW1.6 kmh WSW 8.0 mph12.9 kmh 29.95 in1014.2 mb 0.00 in0.0 mm 0.00 in0.0 mm 0.66 in16.8 mm
02:50 PM 76.1°F24.5°C 61.2°F16.2°C 60% 2.0 mph WSW3.2 kmh WSW 8.0 mph12.9 kmh 29.95 in1014.2 mb 0.00 in0.0 mm 0.00 in0.0 mm 0.66 in16.8 mm
02:55 PM 76.3°F24.6°C 59.9°F15.5°C 57% 2.0 mph NW3.2 kmh NW 8.0 mph12.9 kmh 29.95 in1014.2 mb 0.00 in0.0 mm 0.00 in0.0 mm 0.66 in16.8 mm
03:00 PM 76.3°F24.6°C 59.9°F15.5°C 57% 2.0 mph WNW3.2 kmh WNW 8.0 mph12.9 kmh 29.95 in1014.2 mb 0.00 in0.0 mm 0.00 in0.0 mm 0.66 in16.8 mm
03:05 PM 76.3°F24.6°C 60.4°F15.8°C 58% 1.0 mph WNW1.6 kmh WNW 5.0 mph8.0 kmh 29.95 in1014.2 mb 0.00 in0.0 mm 0.00 in0.0 mm 0.66 in16.8 mm
03:10 PM 75.7°F24.3°C 60.4°F15.8°C 59% 1.0 mph WNW1.6 kmh WNW 8.0 mph12.9 kmh 29.95 in1014.2 mb 0.00 in0.0 mm 0.00 in0.0 mm 0.66 in16.8 mm
03:15 PM 75.6°F24.2°C 59.7°F15.4°C 58% 1.0 mph W1.6 kmh W 8.0 mph12.9 kmh 29.95 in1014.2 mb 0.00 in0.0 mm 0.00 in0.0 mm 0.66 in16.8 mm
03:20 PM 75.0°F23.9°C 58.8°F14.9°C 57% 1.0 mph NW1.6 kmh NW 6.0 mph9.7 kmh 29.95 in1014.2 mb 0.00 in0.0 mm 0.00 in0.0 mm 0.66 in16.8 mm
03:25 PM 74.8°F23.8°C 59.5°F15.3°C 59% 2.0 mph NW3.2 kmh NW 6.0 mph9.7 kmh 29.95 in1014.2 mb 0.00 in0.0 mm 0.00 in0.0 mm 0.66 in16.8 mm
03:30 PM 74.7°F23.7°C 59.0°F15.0°C 58% 2.0 mph WNW3.2 kmh WNW 5.0 mph8.0 kmh 29.95 in1014.2 mb 0.00 in0.0 mm 0.00 in0.0 mm 0.66 in16.8 mm
03:35 PM 74.7°F23.7°C 58.5°F14.7°C 57% 2.0 mph WSW3.2 kmh WSW 7.0 mph11.3 kmh 29.95 in1014.2 mb 0.00 in0.0 mm 0.00 in0.0 mm 0.66 in16.8 mm
03:40 PM 74.5°F23.6°C 57.7°F14.3°C 56% 3.0 mph WNW4.8 kmh WNW 9.0 mph14.5 kmh 29.95 in1014.2 mb 0.00 in0.0 mm 0.00 in0.0 mm 0.66 in16.8 mm
03:45 PM 74.5°F23.6°C 59.2°F15.1°C 59% 2.0 mph NW3.2 kmh NW 9.0 mph14.5 kmh 29.95 in1014.2 mb 0.00 in0.0 mm 0.00 in0.0 mm 0.66 in16.8 mm
03:50 PM 74.7°F23.7°C 59.0°F15.0°C 58% 1.0 mph NW1.6 kmh NW 5.0 mph8.0 kmh 29.95 in1014.2 mb 0.00 in0.0 mm 0.00 in0.0 mm 0.66 in16.8 mm
03:55 PM 74.1°F23.4°C 58.5°F14.7°C 58% 1.0 mph NNW1.6 kmh NNW 4.0 mph6.4 kmh 29.95 in1014.2 mb 0.00 in0.0 mm 0.00 in0.0 mm 0.66 in16.8 mm
04:00 PM 73.8°F23.2°C 58.6°F14.8°C 59% 1.0 mph NNW1.6 kmh NNW 4.0 mph6.4 kmh 29.95 in1014.2 mb 0.00 in0.0 mm 0.00 in0.0 mm 0.66 in16.8 mm
04:05 PM 74.1°F23.4°C 58.5°F14.7°C 58% 1.0 mph NNW1.6 kmh NNW 4.0 mph6.4 kmh 29.95 in1014.2 mb 0.00 in0.0 mm 0.00 in0.0 mm 0.66 in16.8 mm
04:10 PM 73.9°F23.3°C 57.7°F14.3°C 57% 1.0 mph NW1.6 kmh NW 5.0 mph8.0 kmh 29.95 in1014.2 mb 0.00 in0.0 mm 0.00 in0.0 mm 0.66 in16.8 mm
04:15 PM 73.9°F23.3°C 58.1°F14.5°C 58% 2.0 mph NW3.2 kmh NW 5.0 mph8.0 kmh 29.95 in1014.2 mb 0.00 in0.0 mm 0.00 in0.0 mm 0.66 in16.8 mm
04:20 PM 74.1°F23.4°C 57.9°F14.4°C 57% 2.0 mph NNW3.2 kmh NNW 5.0 mph8.0 kmh 29.94 in1013.9 mb 0.00 in0.0 mm 0.00 in0.0 mm 0.66 in16.8 mm
04:25 PM 74.8°F23.8°C 58.5°F14.7°C 57% 1.0 mph N1.6 kmh N 4.0 mph6.4 kmh 29.95 in1014.2 mb 0.00 in0.0 mm 0.00 in0.0 mm 0.66 in16.8 mm
04:30 PM 75.6°F24.2°C 59.4°F15.2°C 57% Calm Calm 5.0 mph8.0 kmh 29.95 in1014.2 mb 0.00 in0.0 mm 0.00 in0.0 mm 0.66 in16.8 mm
04:35 PM 75.7°F24.3°C 58.5°F14.7°C 55% 1.0 mph SW1.6 kmh SW 5.0 mph8.0 kmh 29.95 in1014.2 mb 0.00 in0.0 mm 0.00 in0.0 mm 0.66 in16.8 mm
04:40 PM 75.9°F24.4°C 59.5°F15.3°C 57% Calm Calm 3.0 mph4.8 kmh 29.95 in1014.2 mb 0.00 in0.0 mm 0.00 in0.0 mm 0.66 in16.8 mm
04:45 PM 75.4°F24.1°C 58.6°F14.8°C 56% 1.0 mph NW1.6 kmh NW 7.0 mph11.3 kmh 29.95 in1014.2 mb 0.00 in0.0 mm 0.00 in0.0 mm 0.66 in16.8 mm
04:50 PM 75.6°F24.2°C 59.2°F15.1°C 57% 2.0 mph NW3.2 kmh NW 7.0 mph11.3 kmh 29.95 in1014.2 mb 0.00 in0.0 mm 0.00 in0.0 mm 0.66 in16.8 mm
04:55 PM 75.6°F24.2°C 59.2°F15.1°C 57% 1.0 mph WNW1.6 kmh WNW 4.0 mph6.4 kmh 29.95 in1014.2 mb 0.00 in0.0 mm 0.00 in0.0 mm 0.66 in16.8 mm
05:00 PM 75.6°F24.2°C 58.3°F14.6°C 55% Calm Calm 2.0 mph3.2 kmh 29.95 in1014.2 mb 0.00 in0.0 mm 0.00 in0.0 mm 0.66 in16.8 mm
05:05 PM 75.0°F23.9°C 58.3°F14.6°C 56% Calm Calm 3.0 mph4.8 kmh 29.95 in1014.2 mb 0.00 in0.0 mm 0.00 in0.0 mm 0.66 in16.8 mm
05:10 PM 74.8°F23.8°C 59.9°F15.5°C 60% Calm Calm 3.0 mph4.8 kmh 29.95 in1014.2 mb 0.00 in0.0 mm 0.00 in0.0 mm 0.66 in16.8 mm
05:15 PM 74.7°F23.7°C 59.4°F15.2°C 59% Calm Calm 2.0 mph3.2 kmh 29.95 in1014.2 mb 0.00 in0.0 mm 0.00 in0.0 mm 0.66 in16.8 mm
05:20 PM 74.1°F23.4°C 59.0°F15.0°C 59% Calm Calm 3.0 mph4.8 kmh 29.95 in1014.2 mb 0.00 in0.0 mm 0.00 in0.0 mm 0.66 in16.8 mm
05:25 PM 73.8°F23.2°C 59.0°F15.0°C 60% Calm Calm 3.0 mph4.8 kmh 29.95 in1014.2 mb 0.00 in0.0 mm 0.00 in0.0 mm 0.66 in16.8 mm
05:30 PM 73.0°F22.8°C 58.8°F14.9°C 61% Calm Calm 2.0 mph3.2 kmh 29.95 in1014.2 mb 0.00 in0.0 mm 0.00 in0.0 mm 0.66 in16.8 mm
05:35 PM 72.7°F22.6°C 59.4°F15.2°C 63% Calm Calm 2.0 mph3.2 kmh 29.95 in1014.2 mb 0.00 in0.0 mm 0.00 in0.0 mm 0.66 in16.8 mm
05:40 PM 72.3°F22.4°C 59.2°F15.1°C 63% Calm Calm 1.0 mph1.6 kmh 29.95 in1014.2 mb 0.00 in0.0 mm 0.00 in0.0 mm 0.66 in16.8 mm
05:45 PM 72.3°F22.4°C 59.4°F15.2°C 64% Calm Calm 1.0 mph1.6 kmh 29.95 in1014.2 mb 0.00 in0.0 mm 0.00 in0.0 mm 0.66 in16.8 mm
05:50 PM 72.1°F22.3°C 60.6°F15.9°C 67% Calm Calm 1.0 mph1.6 kmh 29.95 in1014.2 mb 0.00 in0.0 mm 0.00 in0.0 mm 0.66 in16.8 mm
05:55 PM 72.1°F22.3°C 60.3°F15.7°C 66% Calm Calm -- 29.95 in1014.2 mb 0.00 in0.0 mm 0.00 in0.0 mm 0.66 in16.8 mm
06:00 PM 72.0°F22.2°C 59.2°F15.1°C 64% Calm Calm -- 29.95 in1014.2 mb 0.00 in0.0 mm 0.00 in0.0 mm 0.66 in16.8 mm
06:05 PM 71.8°F22.1°C 59.4°F15.2°C 65% Calm Calm -- 29.95 in1014.2 mb 0.00 in0.0 mm 0.00 in0.0 mm 0.66 in16.8 mm
06:10 PM 71.6°F22.0°C 59.7°F15.4°C 66% Calm Calm -- 29.95 in1014.2 mb 0.00 in0.0 mm 0.00 in0.0 mm 0.66 in16.8 mm
06:15 PM 71.6°F22.0°C 60.1°F15.6°C 67% Calm Calm -- 29.95 in1014.2 mb 0.00 in0.0 mm 0.00 in0.0 mm 0.66 in16.8 mm
06:20 PM 71.6°F22.0°C 60.1°F15.6°C 67% Calm Calm -- 29.95 in1014.2 mb 0.00 in0.0 mm 0.00 in0.0 mm 0.66 in16.8 mm
06:25 PM 71.4°F21.9°C 60.3°F15.7°C 68% Calm Calm -- 29.95 in1014.2 mb 0.00 in0.0 mm 0.00 in0.0 mm 0.66 in16.8 mm
06:30 PM 71.2°F21.8°C 60.6°F15.9°C 69% Calm Calm -- 29.95 in1014.2 mb 0.00 in0.0 mm 0.00 in0.0 mm 0.66 in16.8 mm
06:35 PM 71.2°F21.8°C 61.0°F16.1°C 70% Calm Calm -- 29.95 in1014.2 mb 0.00 in0.0 mm 0.00 in0.0 mm 0.66 in16.8 mm
06:40 PM 71.2°F21.8°C 61.7°F16.5°C 72% Calm Calm -- 29.95 in1014.2 mb 0.00 in0.0 mm 0.00 in0.0 mm 0.66 in16.8 mm
06:45 PM 71.1°F21.7°C 62.2°F16.8°C 74% Calm Calm -- 29.95 in1014.2 mb 0.00 in0.0 mm 0.00 in0.0 mm 0.66 in16.8 mm
06:50 PM 70.5°F21.4°C 61.5°F16.4°C 73% Calm Calm -- 29.94 in1013.9 mb 0.00 in0.0 mm 0.00 in0.0 mm 0.66 in16.8 mm
06:55 PM 70.2°F21.2°C 61.3°F16.3°C 74% Calm Calm -- 29.94 in1013.9 mb 0.00 in0.0 mm 0.00 in0.0 mm 0.66 in16.8 mm
07:00 PM 69.6°F20.9°C 61.3°F16.3°C 75% Calm Calm -- 29.94 in1013.9 mb 0.00 in0.0 mm 0.00 in0.0 mm 0.66 in16.8 mm
07:05 PM 69.3°F20.7°C 61.3°F16.3°C 76% Calm Calm -- 29.94 in1013.9 mb 0.00 in0.0 mm 0.00 in0.0 mm 0.66 in16.8 mm
07:10 PM 68.7°F20.4°C 61.3°F16.3°C 77% Calm Calm 1.0 mph1.6 kmh 29.94 in1013.9 mb 0.00 in0.0 mm 0.00 in0.0 mm 0.66 in16.8 mm
07:15 PM 68.4°F20.2°C 61.3°F16.3°C 78% Calm Calm 1.0 mph1.6 kmh 29.94 in1013.9 mb 0.00 in0.0 mm 0.00 in0.0 mm 0.66 in16.8 mm
07:20 PM 68.0°F20.0°C 61.2°F16.2°C 79% Calm Calm 1.0 mph1.6 kmh 29.94 in1013.9 mb 0.00 in0.0 mm 0.00 in0.0 mm 0.66 in16.8 mm
07:25 PM 67.6°F19.8°C 61.2°F16.2°C 80% Calm Calm 1.0 mph1.6 kmh 29.94 in1013.9 mb 0.00 in0.0 mm 0.00 in0.0 mm 0.66 in16.8 mm
07:30 PM 66.9°F19.4°C 61.0°F16.1°C 81% Calm Calm 1.0 mph1.6 kmh 29.95 in1014.2 mb 0.00 in0.0 mm 0.00 in0.0 mm 0.66 in16.8 mm
07:35 PM 66.7°F19.3°C 60.8°F16.0°C 81% Calm Calm 1.0 mph1.6 kmh 29.95 in1014.2 mb 0.00 in0.0 mm 0.00 in0.0 mm 0.66 in16.8 mm
07:40 PM 66.7°F19.3°C 61.5°F16.4°C 83% Calm Calm 1.0 mph1.6 kmh 29.95 in1014.2 mb 0.00 in0.0 mm 0.00 in0.0 mm 0.66 in16.8 mm
07:45 PM 66.4°F19.1°C 61.2°F16.2°C 83% Calm Calm -- 29.95 in1014.2 mb 0.00 in0.0 mm 0.00 in0.0 mm 0.66 in16.8 mm
07:50 PM 65.8°F18.8°C 61.0°F16.1°C 84% Calm Calm 2.0 mph3.2 kmh 29.95 in1014.2 mb 0.00 in0.0 mm 0.00 in0.0 mm 0.66 in16.8 mm
07:55 PM 65.5°F18.6°C 60.6°F15.9°C 84% Calm Calm 2.0 mph3.2 kmh 29.95 in1014.2 mb 0.00 in0.0 mm 0.00 in0.0 mm 0.66 in16.8 mm
08:00 PM 65.3°F18.5°C 60.1°F15.6°C 83% Calm Calm 2.0 mph3.2 kmh 29.95 in1014.2 mb 0.00 in0.0 mm 0.00 in0.0 mm 0.66 in16.8 mm
08:05 PM 65.3°F18.5°C 60.1°F15.6°C 83% Calm Calm 2.0 mph3.2 kmh 29.94 in1013.9 mb 0.00 in0.0 mm 0.00 in0.0 mm 0.66 in16.8 mm
08:10 PM 65.5°F18.6°C 60.1°F15.6°C 83% Calm Calm 1.0 mph1.6 kmh 29.95 in1014.2 mb 0.00 in0.0 mm 0.00 in0.0 mm 0.66 in16.8 mm
08:15 PM 65.3°F18.5°C 60.1°F15.6°C 83% Calm Calm 1.0 mph1.6 kmh 29.95 in1014.2 mb 0.00 in0.0 mm 0.00 in0.0 mm 0.66 in16.8 mm
08:20 PM 64.9°F18.3°C 59.7°F15.4°C 83% Calm Calm -- 29.95 in1014.2 mb 0.00 in0.0 mm 0.00 in0.0 mm 0.66 in16.8 mm
08:25 PM 64.9°F18.3°C 59.9°F15.5°C 84% Calm Calm -- 29.95 in1014.2 mb 0.00 in0.0 mm 0.00 in0.0 mm 0.66 in16.8 mm
08:30 PM 64.9°F18.3°C 59.9°F15.5°C 84% Calm Calm 1.0 mph1.6 kmh 29.95 in1014.2 mb 0.00 in0.0 mm 0.00 in0.0 mm 0.66 in16.8 mm
08:35 PM 64.8°F18.2°C 59.9°F15.5°C 84% Calm Calm 1.0 mph1.6 kmh 29.95 in1014.2 mb 0.00 in0.0 mm 0.00 in0.0 mm 0.66 in16.8 mm
08:40 PM 64.9°F18.3°C 60.1°F15.6°C 84% Calm Calm 1.0 mph1.6 kmh 29.95 in1014.2 mb 0.00 in0.0 mm 0.00 in0.0 mm 0.66 in16.8 mm
08:45 PM 64.9°F18.3°C 60.1°F15.6°C 84% Calm Calm 1.0 mph1.6 kmh 29.95 in1014.2 mb 0.00 in0.0 mm 0.00 in0.0 mm 0.66 in16.8 mm
08:50 PM 64.9°F18.3°C 59.9°F15.5°C 84% Calm Calm -- 29.95 in1014.2 mb 0.00 in0.0 mm 0.00 in0.0 mm 0.66 in16.8 mm
08:55 PM 65.1°F18.4°C 60.6°F15.9°C 85% Calm Calm -- 29.95 in1014.2 mb 0.00 in0.0 mm 0.00 in0.0 mm 0.66 in16.8 mm
09:00 PM 64.9°F18.3°C 60.4°F15.8°C 85% Calm Calm -- 29.95 in1014.2 mb 0.00 in0.0 mm 0.00 in0.0 mm 0.66 in16.8 mm
09:05 PM 64.8°F18.2°C 60.1°F15.6°C 85% Calm Calm -- 29.95 in1014.2 mb 0.00 in0.0 mm 0.00 in0.0 mm 0.66 in16.8 mm
09:10 PM 64.6°F18.1°C 60.3°F15.7°C 86% Calm Calm -- 29.95 in1014.2 mb 0.00 in0.0 mm 0.00 in0.0 mm 0.66 in16.8 mm
09:15 PM 64.2°F17.9°C 59.9°F15.5°C 86% Calm Calm -- 29.95 in1014.2 mb 0.00 in0.0 mm 0.00 in0.0 mm 0.66 in16.8 mm
09:20 PM 64.0°F17.8°C 59.7°F15.4°C 86% Calm Calm -- 29.95 in1014.2 mb 0.00 in0.0 mm 0.00 in0.0 mm 0.66 in16.8 mm
09:25 PM 63.9°F17.7°C 59.5°F15.3°C 86% Calm Calm -- 29.95 in1014.2 mb 0.00 in0.0 mm 0.00 in0.0 mm 0.66 in16.8 mm
09:30 PM 63.9°F17.7°C 60.3°F15.7°C 88% Calm Calm -- 29.95 in1014.2 mb 0.00 in0.0 mm 0.00 in0.0 mm 0.66 in16.8 mm
09:35 PM 63.7°F17.6°C 60.1°F15.6°C 88% Calm Calm -- 29.96 in1014.6 mb 0.00 in0.0 mm 0.00 in0.0 mm 0.66 in16.8 mm
09:40 PM 63.5°F17.5°C 59.9°F15.5°C 88% Calm Calm -- 29.96 in1014.6 mb 0.00 in0.0 mm 0.00 in0.0 mm 0.66 in16.8 mm
09:45 PM 63.3°F17.4°C 60.1°F15.6°C 89% Calm Calm -- 29.95 in1014.2 mb 0.00 in0.0 mm 0.00 in0.0 mm 0.66 in16.8 mm
09:50 PM 63.0°F17.2°C 59.7°F15.4°C 89% Calm Calm -- 29.95 in1014.2 mb 0.00 in0.0 mm 0.00 in0.0 mm 0.66 in16.8 mm
09:55 PM 63.0°F17.2°C 59.5°F15.3°C 89% Calm Calm -- 29.95 in1014.2 mb 0.00 in0.0 mm 0.00 in0.0 mm 0.66 in16.8 mm
10:00 PM 62.8°F17.1°C 59.4°F15.2°C 89% Calm Calm -- 29.95 in1014.2 mb 0.00 in0.0 mm 0.00 in0.0 mm 0.66 in16.8 mm
10:05 PM 62.8°F17.1°C 59.5°F15.3°C 89% Calm Calm -- 29.95 in1014.2 mb 0.00 in0.0 mm 0.00 in0.0 mm 0.66 in16.8 mm
10:10 PM 62.8°F17.1°C 59.5°F15.3°C 89% Calm Calm -- 29.95 in1014.2 mb 0.00 in0.0 mm 0.00 in0.0 mm 0.66 in16.8 mm
10:15 PM 62.8°F17.1°C 59.5°F15.3°C 89% Calm Calm -- 29.95 in1014.2 mb 0.00 in0.0 mm 0.00 in0.0 mm 0.66 in16.8 mm
10:20 PM 62.6°F17.0°C 59.4°F15.2°C 89% Calm Calm -- 29.94 in1013.9 mb 0.00 in0.0 mm 0.00 in0.0 mm 0.66 in16.8 mm
10:25 PM 62.4°F16.9°C 59.2°F15.1°C 89% Calm Calm -- 29.94 in1013.9 mb 0.00 in0.0 mm 0.00 in0.0 mm 0.66 in16.8 mm
10:30 PM 62.6°F17.0°C 59.0°F15.0°C 88% Calm Calm -- 29.94 in1013.9 mb 0.00 in0.0 mm 0.00 in0.0 mm 0.66 in16.8 mm
10:35 PM 62.8°F17.1°C 59.2°F15.1°C 88% Calm Calm 1.0 mph1.6 kmh 29.94 in1013.9 mb 0.00 in0.0 mm 0.00 in0.0 mm 0.66 in16.8 mm
10:40 PM 63.1°F17.3°C 59.2°F15.1°C 87% Calm Calm 2.0 mph3.2 kmh 29.94 in1013.9 mb 0.00 in0.0 mm 0.00 in0.0 mm 0.66 in16.8 mm
10:45 PM 63.5°F17.5°C 58.8°F14.9°C 85% Calm Calm 2.0 mph3.2 kmh 29.94 in1013.9 mb 0.00 in0.0 mm 0.00 in0.0 mm 0.66 in16.8 mm
10:50 PM 63.9°F17.7°C 58.3°F14.6°C 82% Calm Calm 1.0 mph1.6 kmh 29.93 in1013.5 mb 0.00 in0.0 mm 0.00 in0.0 mm 0.66 in16.8 mm
10:55 PM 64.2°F17.9°C 57.9°F14.4°C 80% Calm Calm 1.0 mph1.6 kmh 29.93 in1013.5 mb 0.00 in0.0 mm 0.00 in0.0 mm 0.66 in16.8 mm
11:00 PM 64.2°F17.9°C 57.6°F14.2°C 79% Calm Calm 2.0 mph3.2 kmh 29.93 in1013.5 mb 0.00 in0.0 mm 0.00 in0.0 mm 0.45 in11.4 mm
11:05 PM 64.6°F18.1°C 57.2°F14.0°C 77% Calm Calm 2.0 mph3.2 kmh 29.93 in1013.5 mb 0.00 in0.0 mm 0.00 in0.0 mm 0.45 in11.4 mm
11:10 PM 64.8°F18.2°C 57.0°F13.9°C 76% Calm Calm 2.0 mph3.2 kmh 29.93 in1013.5 mb 0.00 in0.0 mm 0.00 in0.0 mm 0.45 in11.4 mm
11:15 PM 65.1°F18.4°C 57.0°F13.9°C 75% Calm Calm 2.0 mph3.2 kmh 29.93 in1013.5 mb 0.00 in0.0 mm 0.00 in0.0 mm 0.45 in11.4 mm
11:20 PM 65.5°F18.6°C 57.0°F13.9°C 74% Calm Calm 2.0 mph3.2 kmh 29.93 in1013.5 mb 0.00 in0.0 mm 0.00 in0.0 mm 0.45 in11.4 mm
11:25 PM 65.7°F18.7°C 57.4°F14.1°C 75% Calm Calm 2.0 mph3.2 kmh 29.93 in1013.5 mb 0.00 in0.0 mm 0.00 in0.0 mm 0.45 in11.4 mm
11:30 PM 65.5°F18.6°C 57.4°F14.1°C 75% Calm Calm 1.0 mph1.6 kmh 29.93 in1013.5 mb 0.00 in0.0 mm 0.00 in0.0 mm 0.45 in11.4 mm
11:35 PM 65.5°F18.6°C 57.9°F14.4°C 77% Calm Calm 1.0 mph1.6 kmh 29.93 in1013.5 mb 0.00 in0.0 mm 0.00 in0.0 mm 0.45 in11.4 mm
11:40 PM 65.1°F18.4°C 57.4°F14.1°C 76% Calm Calm 1.0 mph1.6 kmh 29.93 in1013.5 mb 0.00 in0.0 mm 0.00 in0.0 mm 0.45 in11.4 mm
11:45 PM 65.3°F18.5°C 56.8°F13.8°C 74% Calm Calm 2.0 mph3.2 kmh 29.93 in1013.5 mb 0.00 in0.0 mm 0.00 in0.0 mm 0.45 in11.4 mm
11:50 PM 65.7°F18.7°C 57.7°F14.3°C 76% Calm Calm 2.0 mph3.2 kmh 29.94 in1013.9 mb 0.00 in0.0 mm 0.00 in0.0 mm 0.45 in11.4 mm
11:55 PM 65.7°F18.7°C 59.0°F15.0°C 79% Calm Calm -- 29.94 in1013.9 mb 0.00 in0.0 mm 0.00 in0.0 mm 0.45 in11.4 mm